Chippewa Falls, WI

11:46 AM CST on March 04, 2015 (GMT -0600)
Lake Wissota | Change Station
CLOSE
Current Station
Personal Weather Station
Location: Chippewa Falls, WI
Elevation: 925 ft
Nearby Weather Stations

Elev 925 ft 44.98 °N, 91.34 °W | Updated 2 seconds ago

Clear
Clear
14.2 °F
Feels Like 3 °F
N
8.1
Wind Variable Wind from North
Gusts 8.1 mph

Today
High -- | Low -- °F
--% Chance of Precip.
Yesterday
High -- | Low -- °F
Precip. -- in
6:38 AM 5:56 PM
Waxing Gibbous, 99% visible
Pressure 30.25 in
Visibility 10.0 miles
Clouds Clear
Windchill 3 °F
Dew Point -15 °F
Humidity 25%
Rainfall 0.00 in
Snow Depth Not available.
UV 4 out of 12
Pollen .50 out of 12
Air Quality Not available.
Flu Activity Not available.
METAR KEAU 041656Z 29011G23KT 10SM CLR M14/M23 A3018 RMK AO2 SLP242 T11441228

More Conditions Fewer Conditions

Pressure 30.25 in
Visibility 10.0 miles
Clouds Clear
Windchill 3 °F
Dew Point -15 °F
Humidity 25%
Rainfall 0.00 in
Snow Depth Not available.
UV 4 out of 12
Pollen .50 out of 12
Air Quality Not available.
Flu Activity Not available.
METAR KEAU 041656Z 29011G23KT 10SM CLR M14/M23 A3018 RMK AO2 SLP242 T11441228

More Conditions Fewer Conditions

10-Day Weather Forecast

Almanac

Astronomy

Mar. 04, 2015 Rise Set
Actual Time
Civil Twilight
Nautical Twilight
Astronomical Twilight
Moon
Length of Visible Light
Length of Day
Tomorrow will be .
, % of the Moon is Illuminated

Today's Extremes

State Highs State Lows

Community

WunderPhotos

Upload Photos

1,802,515 photos uploaded!

WunderBlogs® & News

Nearby

Air Quality

  Air Quality AQ Index Pollutant
Not available.

Snow Depth

Station Depth Elevation

Earthquake Activity

City Distance Mag. Time & Date
Minimum magnitude displayed is 2.5.

Coastal Water Temperatures

Place Temperature

Nearby Weather Stations